Aérodrome :
LOGIN :

S'inscrire | Disclaimer

   EN    FR    IT 

 










Légende :    VFR   VFR Marginal   IFR   IFR Intensif   IFR Très Intensif
Visi : 
Plafond : 
>= 8 km
>= 3000ft
5 à 8 km
1000 à 3000 ft
1500m à 5 km
500 à 1000 ft
800 à 1500m
200 à 500 ft
< 800m
< 200 ft
Symboles :   Orages  Brouillard  Fortes neiges  Fortes précipitations  Vent > 20 kt
SIGMETs :   Divers  Orages  Givrage  Turbulence  Onde Orograph.  Cendres Volcan.







- Altitude de l'aérodrome : 1234 ft
- Code IATA : LUX


ELLX - Luxembourg Findel

METARs EXPIRÉS :
  • 241420Z 24013KT 200V270 9999 SCT048 23/10 Q1018 NOSIG
  • 241350Z 24013KT 9999 BKN045 22/09 Q1018 NOSIG
  • 241320Z 27013KT 9999 BKN045 21/10 Q1018 NOSIG
  • 241250Z 24011KT 200V270 9999 BKN042 23/09 Q1018 NOSIG
  • 241220Z 24012KT 210V280 9999 BKN041 21/10 Q1018 NOSIG
  • 241150Z 25014KT 220V280 9999 BKN041 21/10 Q1018 NOSIG

TAF TAF ELLX
Valide du 24 à 12h jusqu'au 25 à 18h UTC


241100Z 2412/2518 26010KT 9999 BKN035
TEMPO 2412/2418 27012G22KT
TEMPO 2510/2516 26015G25KT
ATIS : +352 4798 27300
Météo : +352 4798 27010 / 27050
Pas de NOTAMs connus pour ce terrain.



MET'MAP, la Météo Aéronautique d'un coup d'oeil ! - Copyright ORBIFLY Décembre 2007 - Disclaimer

ORBIFLY MET'MAP TEAM :

Programmation & Développement : Alexandra Zaïnal
Conception & Développement : Baudouin d'Aumeries
Co-Programmation & Développement : Marc-Olivier Méhu
Soutien technique & logistique : Manuel Goepfert

Contact : metmap@orbifly.com




SOURCES & CREDITS :

   NOAA